Time;durP1;ratioP1;P1;durP2;ratioP2;P2;SDS_P1;SDS_P2;PMS_P1;PMS_P2;Temp;Humidity;BMP_temperature;BMP_pressure;BME280_temperature;BME280_humidity;BME280_pressure;Samples;Min_cycle;Max_cycle;Signal;HPM_P1;HPM_P2
2023/10/05 00:08:28;;;;;;;9.97;3.00;;;;;;;12.78;60.43;101236.13;21073342;28;20232;-80
2023/10/05 00:18:33;;;;;;;8.37;3.07;;;;;;;12.32;62.62;101250.53;21066719;28;20198;-88
2023/10/05 00:28:35;;;;;;;6.60;2.47;;;;;;;12.67;61.45;101245.19;21067380;28;20229;-85
2023/10/05 00:38:38;;;;;;;6.00;2.88;;;;;;;12.20;62.25;101259.56;21068621;28;20205;-80
2023/10/05 00:48:56;;;;;;;4.77;2.13;;;;;;;12.12;63.25;101246.19;21080172;28;20214;-78
2023/10/05 00:59:05;;;;;;;6.20;1.90;;;;;;;12.06;62.36;101247.47;21055522;28;20291;-80
2023/10/05 01:09:12;;;;;;;8.30;2.13;;;;;;;12.67;60.78;101240.38;21041483;28;20223;-86
2023/10/05 01:19:15;;;;;;;5.60;1.70;;;;;;;12.83;60.73;101247.31;21079319;28;20259;-80
2023/10/05 01:29:18;;;;;;;6.80;1.97;;;;;;;12.62;61.60;101235.66;21062319;28;20229;-79
2023/10/05 01:39:21;;;;;;;8.38;1.83;;;;;;;12.17;63.32;101243.25;21065248;28;20198;-79
2023/10/05 01:49:25;;;;;;;10.05;2.67;;;;;;;12.18;63.35;101249.72;21079598;28;20615;-78
2023/10/05 01:59:27;;;;;;;7.70;1.90;;;;;;;12.25;63.22;101236.84;21075600;28;20236;-79
2023/10/05 02:09:31;;;;;;;9.17;1.80;;;;;;;12.68;61.71;101233.56;21070851;28;20752;-85
2023/10/05 02:19:36;;;;;;;8.27;1.77;;;;;;;12.57;62.42;101233.00;21060560;28;20187;-80
2023/10/05 02:29:43;;;;;;;7.53;1.83;;;;;;;12.26;63.21;101252.63;21078411;28;20313;-80
2023/10/05 02:39:45;;;;;;;6.53;1.70;;;;;;;11.93;64.71;101239.84;21097462;28;20425;-79
2023/10/05 02:49:48;;;;;;;7.73;2.00;;;;;;;12.13;63.58;101236.56;21087113;28;20218;-78
2023/10/05 02:59:50;;;;;;;7.45;1.52;;;;;;;11.96;64.47;101219.47;21087670;28;20514;-80
2023/10/05 03:09:58;;;;;;;6.23;1.87;;;;;;;12.37;62.92;101216.50;21091694;28;20210;-80
2023/10/05 03:20:00;;;;;;;9.77;2.53;;;;;;;12.17;63.51;101220.69;21077804;28;20199;-79
2023/10/05 03:30:14;;;;;;;7.27;2.07;;;;;;;12.15;64.18;101211.69;21075398;28;20309;-83
2023/10/05 03:40:22;;;;;;;5.00;1.20;;;;;;;11.98;64.91;101216.31;21064808;28;20199;-80
2023/10/05 03:50:25;;;;;;;3.50;1.50;;;;;;;12.12;63.82;101217.97;21082480;28;20222;-79
2023/10/05 04:00:34;;;;;;;6.77;1.73;;;;;;;12.21;63.73;101210.41;21081806;28;20212;-82
2023/10/05 04:10:46;;;;;;;4.40;1.80;;;;;;;11.97;64.65;101212.66;21062087;28;20211;-79
2023/10/05 04:20:47;;;;;;;2.92;1.45;;;;;;;11.82;65.84;101213.88;21070650;28;20203;-82
2023/10/05 04:30:51;;;;;;;7.03;1.93;;;;;;;12.31;63.87;101214.16;21060409;28;20683;-80
2023/10/05 04:40:54;;;;;;;5.43;1.63;;;;;;;11.80;65.24;101216.16;21038636;28;20200;-79
2023/10/05 04:51:03;;;;;;;5.90;1.70;;;;;;;11.54;66.51;101223.47;21080583;28;20230;-87
2023/10/05 05:01:28;;;;;;;8.87;2.57;;;;;;;11.78;65.80;101217.63;21076521;28;20197;-80
2023/10/05 05:11:31;;;;;;;12.03;2.03;;;;;;;11.92;65.34;101210.81;21067411;28;20245;-80
2023/10/05 05:21:34;;;;;;;3.75;1.55;;;;;;;11.75;66.69;101207.81;21078945;28;20463;-83
2023/10/05 05:31:38;;;;;;;5.53;1.20;;;;;;;12.08;65.38;101205.66;21047426;28;20218;-86
2023/10/05 05:41:39;;;;;;;5.03;1.80;;;;;;;12.07;65.74;101212.47;21069343;28;20195;-80
2023/10/05 05:51:43;;;;;;;7.30;2.23;;;;;;;11.98;65.35;101207.88;21071412;28;20226;-80
2023/10/05 06:01:46;;;;;;;7.85;1.90;;;;;;;11.85;66.04;101206.75;21064170;28;20199;-79
2023/10/05 06:11:50;;;;;;;8.67;2.23;;;;;;;11.98;65.21;101236.91;21075987;28;20263;-81
2023/10/05 06:21:51;;;;;;;5.77;1.60;;;;;;;12.19;64.96;101246.59;21082891;28;20583;-81
2023/10/05 06:31:55;;;;;;;6.90;2.07;;;;;;;12.10;65.59;101267.38;21075245;28;20236;-88
2023/10/05 06:41:58;;;;;;;6.10;2.03;;;;;;;11.81;66.05;101274.25;21049232;28;20603;-84
2023/10/05 06:52:01;;;;;;;5.00;1.83;;;;;;;12.30;65.35;101292.34;21067230;28;20222;-84
2023/10/05 07:02:02;;;;;;;8.57;1.90;;;;;;;11.99;66.43;101288.50;21079344;28;20251;-89
2023/10/05 07:12:06;;;;;;;5.50;1.70;;;;;;;12.11;66.27;101300.94;21076531;28;20219;-84
2023/10/05 07:22:09;;;;;;;6.67;1.80;;;;;;;12.31;65.78;101287.53;21101261;28;20290;-87
2023/10/05 07:32:13;;;;;;;6.07;1.87;;;;;;;12.76;63.76;101292.09;21070475;28;20221;-87
2023/10/05 07:42:16;;;;;;;8.20;2.07;;;;;;;12.50;64.36;101296.69;21072189;28;20216;-88
2023/10/05 07:52:19;;;;;;;12.50;2.23;;;;;;;12.67;64.37;101305.31;21076482;28;20243;-83
2023/10/05 08:02:21;;;;;;;5.40;1.80;;;;;;;12.68;65.07;101332.41;21062427;28;20216;-87
2023/10/05 08:12:27;;;;;;;8.25;2.20;;;;;;;13.02;63.95;101345.13;21071447;28;20213;-79
2023/10/05 08:22:29;;;;;;;7.17;1.90;;;;;;;13.12;62.73;101350.53;21075703;28;20646;-79
2023/10/05 08:32:33;;;;;;;7.37;2.10;;;;;;;13.99;60.72;101355.53;21074399;28;20514;-79
2023/10/05 08:42:35;;;;;;;6.80;1.53;;;;;;;13.99;61.94;101364.84;21061647;28;20211;-79
2023/10/05 08:52:40;;;;;;;5.80;1.43;;;;;;;13.82;61.56;101361.13;21089044;28;20839;-82
2023/10/05 09:02:42;;;;;;;4.53;1.85;;;;;;;13.98;60.70;101362.34;21064015;28;20256;-82
2023/10/05 09:12:46;;;;;;;4.13;1.60;;;;;;;13.53;61.40;101373.78;21076152;28;20227;-80
2023/10/05 09:22:49;;;;;;;8.90;2.07;;;;;;;14.86;58.51;101376.38;21065395;28;20191;-81
2023/10/05 09:33:06;;;;;;;8.50;2.20;;;;;;;14.78;59.25;101378.06;21058763;28;20210;-79
2023/10/05 09:43:10;;;;;;;8.27;1.90;;;;;;;14.47;59.65;101397.16;21074271;28;20227;-80
2023/10/05 09:53:14;;;;;;;10.50;2.00;;;;;;;14.71;58.63;101411.69;21047067;28;20537;-80
2023/10/05 10:03:17;;;;;;;7.50;1.98;;;;;;;14.35;60.82;101417.63;21053353;28;20321;-79
2023/10/05 10:13:22;;;;;;;8.55;1.65;;;;;;;15.07;57.52;101415.09;21048691;28;20243;-80
2023/10/05 10:23:27;;;;;;;6.18;1.52;;;;;;;14.58;58.65;101432.50;21078172;28;20259;-79
2023/10/05 10:33:30;;;;;;;6.00;1.53;;;;;;;14.44;59.57;101421.31;21065072;28;20541;-80
2023/10/05 10:43:32;;;;;;;5.40;1.80;;;;;;;14.24;59.46;101414.25;21067852;28;20222;-78
2023/10/05 10:53:37;;;;;;;6.32;1.63;;;;;;;14.67;58.24;101428.56;21059284;28;20231;-79
2023/10/05 11:03:39;;;;;;;5.93;1.55;;;;;;;15.26;56.28;101405.44;21030629;28;20226;-77
2023/10/05 11:13:45;;;;;;;7.43;1.65;;;;;;;14.57;58.36;101394.84;21037958;28;20187;-78
2023/10/05 11:23:48;;;;;;;6.28;1.88;;;;;;;14.88;57.41;101385.41;21061359;28;20240;-78
2023/10/05 11:33:53;;;;;;;9.02;1.88;;;;;;;14.89;56.80;101381.41;21068520;28;20206;-79
2023/10/05 11:43:55;;;;;;;5.47;1.83;;;;;;;15.33;55.90;101383.09;21043739;28;20215;-79
2023/10/05 11:53:58;;;;;;;5.43;1.40;;;;;;;15.30;54.89;101386.59;21063647;28;20560;-79
2023/10/05 12:04:04;;;;;;;3.53;1.10;;;;;;;15.17;54.78;101373.41;21085750;28;20518;-79
2023/10/05 12:14:07;;;;;;;4.45;1.65;;;;;;;15.39;55.16;101364.69;21026605;28;20636;-79
2023/10/05 12:24:10;;;;;;;7.72;1.45;;;;;;;15.70;53.23;101370.97;21053788;28;20214;-79
2023/10/05 12:34:15;;;;;;;4.45;1.52;;;;;;;15.80;52.02;101370.63;21031515;28;20230;-79
2023/10/05 12:44:17;;;;;;;6.13;1.50;;;;;;;15.64;52.48;101366.63;21048546;28;20279;-80
2023/10/05 12:54:28;;;;;;;7.43;2.00;;;;;;;16.13;51.42;101367.13;21061301;28;20504;-78
2023/10/05 13:04:31;;;;;;;9.25;2.42;;;;;;;15.79;52.78;101368.13;21089700;28;20312;-78
2023/10/05 13:14:34;;;;;;;6.72;2.50;;;;;;;16.41;51.52;101379.69;21054200;28;20614;-79
2023/10/05 13:24:36;;;;;;;5.07;1.33;;;;;;;15.96;50.91;101392.78;21037742;28;20222;-78
2023/10/05 13:34:39;;;;;;;5.72;1.80;;;;;;;16.08;50.97;101384.38;21042628;28;20199;-85
2023/10/05 13:44:41;;;;;;;6.15;2.10;;;;;;;15.87;50.67;101381.44;21065799;28;20222;-79
2023/10/05 13:54:44;;;;;;;4.47;2.05;;;;;;;15.59;51.92;101375.31;21047838;28;20238;-78
2023/10/05 14:04:50;;;;;;;7.18;1.83;;;;;;;15.49;52.27;101384.19;21065005;28;20214;-79
2023/10/05 14:14:53;;;;;;;4.07;2.00;;;;;;;15.31;52.89;101386.25;21063815;28;20595;-79
2023/10/05 14:24:54;;;;;;;3.20;1.63;;;;;;;15.78;52.25;101377.81;21048266;28;20231;-79
2023/10/05 14:35:02;;;;;;;5.82;1.52;;;;;;;16.06;50.73;101366.84;21068710;28;20199;-80
2023/10/05 14:45:05;;;;;;;6.57;1.60;;;;;;;16.02;51.33;101360.19;21044483;28;20233;-79
2023/10/05 14:55:08;;;;;;;6.47;1.52;;;;;;;16.04;51.83;101369.19;21060566;28;20255;-80
2023/10/05 15:05:12;;;;;;;5.82;1.50;;;;;;;15.39;52.61;101374.03;21047882;28;20673;-80
2023/10/05 15:15:17;;;;;;;6.28;1.67;;;;;;;16.39;51.22;101384.88;21043538;28;20290;-80
2023/10/05 15:25:19;;;;;;;4.78;1.35;;;;;;;15.93;52.15;101380.09;21039618;28;20530;-81
2023/10/05 15:35:23;;;;;;;8.75;1.67;;;;;;;16.36;51.88;101388.41;21058282;28;20218;-81
2023/10/05 15:45:26;;;;;;;4.93;1.63;;;;;;;15.24;53.75;101388.75;21077785;28;20267;-80
2023/10/05 15:55:30;;;;;;;5.53;1.63;;;;;;;15.74;52.55;101388.97;21045919;28;20233;-80
2023/10/05 16:05:35;;;;;;;4.78;1.10;;;;;;;15.60;53.56;101399.69;21062330;28;20211;-81
2023/10/05 16:15:39;;;;;;;4.07;1.23;;;;;;;15.44;53.77;101398.56;21062525;28;20209;-79
2023/10/05 16:25:42;;;;;;;3.95;1.25;;;;;;;15.42;53.71;101398.91;21067632;28;20219;-83
2023/10/05 16:35:45;;;;;;;8.43;1.58;;;;;;;15.56;52.65;101392.22;21062122;28;20210;-84
2023/10/05 16:45:46;;;;;;;4.65;2.53;;;;;;;15.44;53.34;101401.41;21058726;28;20229;-87
2023/10/05 16:55:49;;;;;;;4.95;2.17;;;;;;;15.20;54.09;101401.13;21082404;28;20232;-88
2023/10/05 17:05:55;;;;;;;5.97;2.60;;;;;;;15.41;54.27;101400.06;21074069;28;20250;-81
2023/10/05 17:15:58;;;;;;;5.97;2.60;;;;;;;15.03;53.41;101414.13;21073089;28;20202;-80
2023/10/05 17:26:00;;;;;;;6.20;1.80;;;;;;;15.59;52.62;101414.25;21063791;28;20488;-80
2023/10/05 17:36:04;;;;;;;4.53;1.45;;;;;;;15.57;52.48;101422.25;21047830;28;20202;-86
2023/10/05 17:46:06;;;;;;;4.13;1.55;;;;;;;15.02;53.59;101420.94;21075838;28;20227;-84
2023/10/05 17:56:09;;;;;;;3.55;1.17;;;;;;;15.17;53.18;101428.13;21039826;28;20258;-80
2023/10/05 18:06:11;;;;;;;5.65;1.55;;;;;;;15.29;52.49;101424.63;21078276;28;20214;-79
2023/10/05 18:16:14;;;;;;;4.32;1.52;;;;;;;15.52;53.10;101426.09;21065522;28;20200;-85
2023/10/05 18:26:16;;;;;;;4.00;1.27;;;;;;;15.09;53.98;101424.09;21075057;28;20313;-87
2023/10/05 18:36:20;;;;;;;6.15;1.85;;;;;;;15.24;53.14;101439.78;21075275;28;20206;-86
2023/10/05 18:46:22;;;;;;;5.35;1.38;;;;;;;14.71;54.83;101448.53;21072595;28;20276;-79
2023/10/05 18:56:26;;;;;;;5.30;1.48;;;;;;;14.71;54.16;101438.03;21054262;28;20639;-81
2023/10/05 19:06:28;;;;;;;3.25;1.27;;;;;;;14.65;54.61;101441.38;21068048;28;20526;-81
2023/10/05 19:16:32;;;;;;;6.10;2.20;;;;;;;14.56;53.91;101435.66;21077355;28;20224;-83
2023/10/05 19:26:34;;;;;;;4.43;1.70;;;;;;;14.94;54.77;101433.06;21073105;28;20318;-84
2023/10/05 19:36:37;;;;;;;3.70;1.20;;;;;;;14.62;54.21;101447.69;21084769;28;20202;-88
2023/10/05 19:46:39;;;;;;;4.77;1.50;;;;;;;14.78;53.63;101445.22;21074520;28;20220;-87
2023/10/05 19:56:43;;;;;;;3.77;1.27;;;;;;;14.53;54.78;101467.50;21079977;28;20257;-81
2023/10/05 20:06:45;;;;;;;7.10;1.48;;;;;;;14.25;55.88;101469.72;21084397;28;20677;-81
2023/10/05 20:16:48;;;;;;;4.53;1.65;;;;;;;14.32;56.28;101472.91;21072180;28;20195;-80
2023/10/05 20:26:50;;;;;;;4.88;1.77;;;;;;;14.18;55.98;101460.81;21051461;28;20519;-84
2023/10/05 20:36:54;;;;;;;6.13;1.45;;;;;;;13.75;57.72;101468.25;21070306;28;20517;-81
2023/10/05 20:46:59;;;;;;;3.67;1.30;;;;;;;13.92;57.17;101477.66;21058692;28;20226;-80
2023/10/05 20:57:02;;;;;;;5.75;1.73;;;;;;;13.44;59.44;101488.81;21076089;28;20233;-82
2023/10/05 21:07:04;;;;;;;5.30;1.88;;;;;;;13.52;59.12;101492.88;21060715;28;20543;-87
2023/10/05 21:17:07;;;;;;;4.20;1.92;;;;;;;13.41;59.34;101497.09;21052241;28;20206;-81
2023/10/05 21:27:09;;;;;;;8.80;1.77;;;;;;;13.38;59.15;101503.41;21046186;28;20223;-80
2023/10/05 21:37:12;;;;;;;4.93;1.40;;;;;;;13.81;57.77;101489.59;21052760;28;20276;-80
2023/10/05 21:47:14;;;;;;;5.83;1.73;;;;;;;12.71;60.85;101504.06;21049321;28;20222;-83
2023/10/05 21:57:17;;;;;;;3.60;2.20;;;;;;;12.67;61.70;101494.53;21034269;28;20256;-81
2023/10/05 22:07:19;;;;;;;9.27;2.07;;;;;;;12.77;61.32;101494.31;21053936;28;20309;-81
2023/10/05 22:17:22;;;;;;;4.50;2.23;;;;;;;12.50;62.32;101497.13;21052195;28;20213;-87
2023/10/05 22:27:24;;;;;;;8.13;2.00;;;;;;;12.38;62.45;101485.50;21047647;28;20226;-86
2023/10/05 22:37:27;;;;;;;6.13;1.70;;;;;;;12.39;62.47;101465.44;21070504;28;20191;-81
2023/10/05 22:47:28;;;;;;;9.67;1.97;;;;;;;12.66;61.16;101469.41;21077769;28;20244;-79
2023/10/05 22:57:31;;;;;;;5.33;2.03;;;;;;;12.56;61.38;101470.50;21075878;28;20288;-80
2023/10/05 23:07:34;;;;;;;8.80;2.33;;;;;;;12.45;62.10;101461.38;21060781;28;20308;-82
2023/10/05 23:17:37;;;;;;;6.75;1.77;;;;;;;12.22;63.20;101442.63;21059389;28;20583;-80
2023/10/05 23:27:42;;;;;;;4.47;1.80;;;;;;;12.50;62.47;101449.16;21084623;28;20226;-82
2023/10/05 23:37:50;;;;;;;4.75;1.58;;;;;;;12.65;61.99;101457.28;21084735;28;20492;-79
2023/10/05 23:47:53;;;;;;;6.07;1.67;;;;;;;12.65;61.30;101474.22;21074206;28;20218;-87
2023/10/05 23:57:58;;;;;;;7.20;1.93;;;;;;;12.86;60.80;101483.91;21061010;28;20234;-86
